Time;durP1;ratioP1;P1;durP2;ratioP2;P2;SDS_P1;SDS_P2;PMS_P1;PMS_P2;Temp;Humidity;BMP_temperature;BMP_pressure;BME280_temperature;BME280_humidity;BME280_pressure;Samples;Min_cycle;Max_cycle;Signal;HPM_P1;HPM_P2
2022/05/17 00:00:29;;;;;;;7.40;6.70;;;15.90;99.90;;;;;;4466674;28;10000962;-79
2022/05/17 00:02:56;;;;;;;9.00;7.43;;;15.90;99.90;;;;;;5022578;28;20026;-80
2022/05/17 00:05:22;;;;;;;7.40;6.60;;;15.80;99.90;;;;;;5023034;28;20029;-80
2022/05/17 00:07:47;;;;;;;6.07;5.32;;;15.80;99.90;;;;;;5024252;28;20033;-80
2022/05/17 00:10:13;;;;;;;5.70;5.20;;;15.80;99.90;;;;;;5011516;28;20037;-79
2022/05/17 00:12:38;;;;;;;5.80;5.07;;;15.90;99.90;;;;;;5016387;28;20483;-80
2022/05/17 00:15:05;;;;;;;5.60;5.10;;;15.80;99.90;;;;;;5023103;28;20025;-80
2022/05/17 00:17:31;;;;;;;5.93;5.30;;;15.80;99.90;;;;;;5014598;28;20040;-79
2022/05/17 00:19:57;;;;;;;5.85;5.00;;;15.80;99.90;;;;;;5014177;28;20026;-80
2022/05/17 00:22:23;;;;;;;7.03;6.32;;;15.80;99.90;;;;;;5020703;28;20083;-80
2022/05/17 00:24:48;;;;;;;10.68;8.10;;;15.70;99.90;;;;;;5022663;28;20076;-80
2022/05/17 00:27:14;;;;;;;9.27;8.27;;;15.70;99.90;;;;;;5025524;28;20150;-80
2022/05/17 00:29:40;;;;;;;10.70;7.78;;;15.70;99.90;;;;;;5022732;28;20450;-79
2022/05/17 00:32:06;;;;;;;9.10;8.20;;;15.60;99.90;;;;;;5025373;28;20029;-79
2022/05/17 00:34:32;;;;;;;7.72;6.75;;;15.60;99.90;;;;;;5027785;28;20025;-80
2022/05/17 00:36:58;;;;;;;7.25;6.55;;;15.60;99.90;;;;;;5024576;28;20124;-80
2022/05/17 00:39:24;;;;;;;7.45;6.60;;;15.60;99.90;;;;;;5017681;28;20113;-80
2022/05/17 00:41:49;;;;;;;10.13;7.82;;;15.50;99.90;;;;;;5026603;28;20109;-79
2022/05/17 00:47:12;;;;;;;11.50;8.85;;;15.40;99.90;;;;;;5026343;28;20087;-79
2022/05/17 00:49:41;;;;;;;10.75;8.20;;;15.40;99.90;;;;;;5020947;28;20036;-80
2022/05/17 00:52:12;;;;;;;10.15;8.35;;;15.40;99.90;;;;;;5027621;28;20597;-79
2022/05/17 00:54:40;;;;;;;8.68;7.57;;;15.40;99.90;;;;;;5024284;28;20099;-79
2022/05/17 00:57:23;;;;;;;8.55;7.57;;;15.40;99.90;;;;;;5022822;28;20029;-79
2022/05/17 00:59:49;;;;;;;9.35;7.22;;;15.40;99.90;;;;;;5023712;28;20043;-79
2022/05/17 01:02:15;;;;;;;8.52;7.40;;;15.40;99.90;;;;;;5023935;28;20516;-79
2022/05/17 01:04:41;;;;;;;9.85;8.40;;;15.40;99.90;;;;;;5024609;28;20033;-79
2022/05/17 01:07:24;;;;;;;11.45;8.00;;;15.30;99.90;;;;;;5024756;28;20507;-79
2022/05/17 01:09:49;;;;;;;10.98;7.82;;;15.30;99.90;;;;;;5020202;28;20061;-79
2022/05/17 01:12:15;;;;;;;6.97;6.32;;;15.30;99.90;;;;;;5023511;28;20500;-79
2022/05/17 01:15:00;;;;;;;10.63;7.60;;;15.30;99.90;;;;;;5025451;28;20148;-78
2022/05/17 01:17:28;;;;;;;7.75;7.03;;;15.30;99.90;;;;;;5020010;28;20113;-79
2022/05/17 01:19:54;;;;;;;7.78;6.78;;;15.30;99.90;;;;;;5007454;28;20115;-79
2022/05/17 01:22:20;;;;;;;7.78;6.95;;;15.20;99.90;;;;;;5017143;28;20167;-79
2022/05/17 01:24:47;;;;;;;6.35;5.75;;;15.20;99.90;;;;;;5019664;28;20057;-79
2022/05/17 01:27:37;;;;;;;7.75;6.50;;;15.20;99.90;;;;;;5015964;28;20037;-79
2022/05/17 01:30:04;;;;;;;12.00;8.48;;;15.20;99.90;;;;;;5017037;28;20043;-79
2022/05/17 01:32:30;;;;;;;9.77;8.80;;;15.20;99.90;;;;;;5021991;28;20022;-79
2022/05/17 01:34:55;;;;;;;8.23;7.38;;;15.20;99.90;;;;;;5018809;28;20009;-79
2022/05/17 01:37:21;;;;;;;8.63;7.70;;;15.20;99.90;;;;;;5019339;28;20026;-78
2022/05/17 01:39:47;;;;;;;7.82;7.10;;;15.20;99.90;;;;;;5018732;28;20057;-79
2022/05/17 01:42:14;;;;;;;6.88;6.18;;;15.20;99.90;;;;;;5020212;28;20104;-78
2022/05/17 01:44:43;;;;;;;6.80;6.10;;;15.20;99.90;;;;;;5025844;28;20112;-78
2022/05/17 01:47:10;;;;;;;9.02;6.90;;;15.10;99.90;;;;;;5016583;28;20022;-79
2022/05/17 01:49:36;;;;;;;8.48;7.65;;;15.10;99.90;;;;;;5020648;28;20665;-78
2022/05/17 01:52:02;;;;;;;9.77;7.60;;;15.10;99.90;;;;;;5022084;28;20029;-78
2022/05/17 01:54:27;;;;;;;12.85;9.40;;;15.00;99.90;;;;;;5017665;28;20104;-79
2022/05/17 01:56:53;;;;;;;24.58;11.70;;;15.00;99.90;;;;;;5025196;28;20560;-79
2022/05/17 01:59:18;;;;;;;20.35;12.00;;;15.00;99.90;;;;;;5019214;28;20037;-78
2022/05/17 02:01:44;;;;;;;12.15;10.82;;;15.00;99.90;;;;;;5020362;28;20060;-79
2022/05/17 02:04:11;;;;;;;18.67;10.23;;;14.90;99.90;;;;;;5020313;28;20077;-79
2022/05/17 02:06:36;;;;;;;87.15;11.27;;;14.90;99.90;;;;;;5024148;28;20022;-79
2022/05/17 02:09:02;;;;;;;10.52;9.52;;;14.90;99.90;;;;;;5024332;28;20025;-78
2022/05/17 02:11:28;;;;;;;14.48;10.75;;;14.80;99.90;;;;;;5021746;28;20040;-78
2022/05/17 02:13:54;;;;;;;18.40;9.63;;;14.80;99.90;;;;;;5022821;28;20021;-78
2022/05/17 02:16:19;;;;;;;27.60;9.80;;;14.80;99.90;;;;;;5024532;28;20025;-78
2022/05/17 02:18:45;;;;;;;10.70;8.68;;;14.80;99.90;;;;;;5017992;28;20047;-79
2022/05/17 02:21:10;;;;;;;19.70;9.57;;;14.80;99.90;;;;;;5023478;28;20017;-78
2022/05/17 02:23:36;;;;;;;10.35;7.03;;;14.70;99.90;;;;;;5022539;28;20435;-78
2022/05/17 02:26:01;;;;;;;99.57;8.60;;;14.70;99.90;;;;;;5015913;28;20042;-78
2022/05/17 02:28:27;;;;;;;74.30;8.88;;;14.70;99.90;;;;;;5014180;28;20768;-78
2022/05/17 02:30:53;;;;;;;28.75;7.93;;;14.70;99.90;;;;;;5020658;28;20044;-77
2022/05/17 02:33:19;;;;;;;8.43;7.72;;;14.60;99.90;;;;;;5018630;28;20029;-77
2022/05/17 02:35:44;;;;;;;8.07;7.38;;;14.60;99.90;;;;;;5015027;28;20057;-77
2022/05/17 02:38:10;;;;;;;56.42;7.40;;;14.60;99.90;;;;;;5014922;28;20393;-77
2022/05/17 02:40:36;;;;;;;18.50;6.10;;;14.60;99.90;;;;;;5018718;28;20535;-77
2022/05/17 02:43:03;;;;;;;11.40;5.75;;;14.60;99.90;;;;;;5020611;28;20783;-77
2022/05/17 02:45:29;;;;;;;11.68;5.85;;;14.50;99.90;;;;;;5019841;28;20044;-77
2022/05/17 02:47:55;;;;;;;5.60;4.88;;;14.50;99.90;;;;;;5014229;28;20041;-77
2022/05/17 02:50:21;;;;;;;6.50;6.00;;;14.40;99.90;;;;;;5014585;28;20036;-77
2022/05/17 02:52:47;;;;;;;6.38;4.90;;;14.40;99.90;;;;;;5019526;28;20028;-77
2022/05/17 02:55:13;;;;;;;15.07;5.57;;;14.40;99.90;;;;;;5010000;28;20412;-77
2022/05/17 02:57:39;;;;;;;15.88;6.30;;;14.40;99.90;;;;;;5013465;28;20030;-77
2022/05/17 03:00:09;;;;;;;8.13;7.32;;;14.40;99.90;;;;;;5016817;28;20575;-77
2022/05/17 03:02:35;;;;;;;8.30;7.50;;;14.30;99.90;;;;;;5022055;28;20064;-77
2022/05/17 03:05:00;;;;;;;9.60;8.35;;;14.30;99.90;;;;;;5019766;28;20033;-78
2022/05/17 03:07:26;;;;;;;10.68;9.18;;;14.30;99.90;;;;;;5014762;28;20044;-78
2022/05/17 03:09:52;;;;;;;10.23;8.70;;;14.30;99.90;;;;;;5013593;28;20030;-78
2022/05/17 03:12:17;;;;;;;27.30;10.35;;;14.30;99.90;;;;;;5016997;28;20030;-77
2022/05/17 03:14:43;;;;;;;10.15;9.15;;;14.30;99.90;;;;;;5016009;28;20033;-77
2022/05/17 03:17:15;;;;;;;44.13;10.85;;;14.30;99.90;;;;;;5014460;28;20477;-77
2022/05/17 03:19:41;;;;;;;22.85;9.80;;;14.30;99.90;;;;;;5013715;28;20038;-78
2022/05/17 03:22:07;;;;;;;16.92;9.52;;;14.30;99.90;;;;;;5008672;28;20040;-77
2022/05/17 03:24:33;;;;;;;17.02;8.32;;;14.40;99.90;;;;;;5017139;28;20056;-78
2022/05/17 03:26:59;;;;;;;22.70;8.10;;;14.40;99.90;;;;;;5023239;28;20812;-78
2022/05/17 03:29:26;;;;;;;116.55;10.52;;;14.30;99.90;;;;;;5019062;28;20414;-77
2022/05/17 03:31:52;;;;;;;33.22;9.50;;;14.40;99.90;;;;;;5023152;28;20506;-78
2022/05/17 03:34:18;;;;;;;9.18;8.35;;;14.30;99.90;;;;;;5021555;28;20040;-78
2022/05/17 03:36:44;;;;;;;15.93;8.95;;;14.30;99.90;;;;;;5011671;28;20029;-78
2022/05/17 03:39:11;;;;;;;50.20;8.88;;;14.30;99.90;;;;;;5021184;28;20029;-77
2022/05/17 03:41:37;;;;;;;74.70;9.63;;;14.30;99.90;;;;;;5025600;28;20041;-77
2022/05/17 03:44:04;;;;;;;39.30;7.95;;;14.20;99.90;;;;;;5018125;28;20041;-77
2022/05/17 03:46:29;;;;;;;32.20;9.43;;;14.20;99.90;;;;;;5020922;28;20041;-77
2022/05/17 03:48:55;;;;;;;37.72;9.60;;;14.10;99.90;;;;;;5007872;28;20026;-77
2022/05/17 03:51:21;;;;;;;10.15;9.15;;;14.10;99.90;;;;;;5014982;28;20252;-77
2022/05/17 03:53:49;;;;;;;18.45;9.27;;;14.10;99.90;;;;;;5024064;28;20448;-77
2022/05/17 03:56:16;;;;;;;114.00;9.90;;;14.10;99.90;;;;;;5022349;28;20501;-77
2022/05/17 03:58:43;;;;;;;14.18;9.20;;;14.10;99.90;;;;;;5023664;28;20025;-77
2022/05/17 04:01:09;;;;;;;10.43;9.43;;;14.10;99.90;;;;;;5022066;28;20044;-77
2022/05/17 04:03:37;;;;;;;9.52;8.63;;;14.10;99.90;;;;;;5022648;28;20025;-77
2022/05/17 04:06:03;;;;;;;10.05;8.80;;;14.10;99.90;;;;;;5015867;28;20032;-77
2022/05/17 04:08:29;;;;;;;26.00;8.82;;;14.10;99.90;;;;;;5019787;28;20033;-77
2022/05/17 04:10:55;;;;;;;11.35;8.85;;;14.10;99.90;;;;;;5020464;28;20025;-78
2022/05/17 04:13:21;;;;;;;13.85;8.02;;;14.10;99.90;;;;;;5019066;28;20026;-78
2022/05/17 04:15:47;;;;;;;28.50;9.35;;;14.20;99.90;;;;;;5018976;28;20067;-78
2022/05/17 04:18:13;;;;;;;13.70;9.20;;;14.20;99.90;;;;;;5019477;28;20539;-77
2022/05/17 04:20:39;;;;;;;10.00;8.85;;;14.20;99.90;;;;;;5018774;28;20040;-78
2022/05/17 04:23:05;;;;;;;10.38;8.93;;;14.30;99.90;;;;;;5020311;28;20082;-79
2022/05/17 04:25:31;;;;;;;21.63;10.18;;;14.40;99.90;;;;;;5024578;28;20148;-78
2022/05/17 04:27:56;;;;;;;14.38;9.40;;;14.40;99.90;;;;;;5024723;28;20083;-77
2022/05/17 04:30:22;;;;;;;15.02;8.77;;;14.50;99.90;;;;;;5021436;28;20038;-77
2022/05/17 04:32:49;;;;;;;103.07;10.63;;;14.50;99.90;;;;;;5021592;28;20032;-77
2022/05/17 04:35:17;;;;;;;23.70;8.55;;;14.50;99.90;;;;;;5023207;28;20445;-77
2022/05/17 04:37:43;;;;;;;8.88;8.07;;;14.50;99.90;;;;;;5026206;28;20024;-77
2022/05/17 04:40:13;;;;;;;17.50;7.82;;;14.60;99.90;;;;;;5021808;28;20025;-78
2022/05/17 04:42:41;;;;;;;8.93;8.13;;;14.70;99.90;;;;;;5024461;28;20059;-77
2022/05/17 04:45:09;;;;;;;29.15;8.68;;;14.70;99.90;;;;;;5015239;28;20699;-77
2022/05/17 04:47:38;;;;;;;38.63;9.35;;;14.70;99.90;;;;;;5020047;28;20033;-78
2022/05/17 04:50:05;;;;;;;15.30;8.32;;;14.60;99.90;;;;;;5022086;28;20025;-78
2022/05/17 04:52:31;;;;;;;11.68;8.95;;;14.60;99.90;;;;;;5025780;28;20040;-79
2022/05/17 04:54:57;;;;;;;8.65;7.88;;;14.60;99.90;;;;;;5020438;28;20026;-79
2022/05/17 04:57:23;;;;;;;29.48;8.73;;;14.70;99.90;;;;;;5021236;28;20579;-79
2022/05/17 04:59:49;;;;;;;38.72;9.93;;;14.70;99.90;;;;;;5022177;28;20029;-79
2022/05/17 05:02:14;;;;;;;10.00;9.00;;;14.70;99.90;;;;;;5029254;28;20048;-79
2022/05/17 05:04:40;;;;;;;16.00;9.48;;;14.60;99.90;;;;;;5026138;28;20469;-79
2022/05/17 05:07:06;;;;;;;14.57;10.45;;;14.60;99.90;;;;;;5025822;28;20461;-79
2022/05/17 05:09:33;;;;;;;16.77;11.18;;;14.60;99.90;;;;;;5021165;28;20494;-79
2022/05/17 05:11:59;;;;;;;22.75;11.43;;;14.70;99.90;;;;;;5019821;28;20037;-80
2022/05/17 05:14:25;;;;;;;11.38;10.27;;;14.70;99.90;;;;;;5025915;28;20051;-80
2022/05/17 05:16:51;;;;;;;35.55;11.77;;;14.80;99.90;;;;;;5026972;28;20025;-80
2022/05/17 05:19:17;;;;;;;11.63;10.50;;;14.80;99.90;;;;;;5024196;28;20298;-80
2022/05/17 05:21:43;;;;;;;12.38;10.52;;;14.90;99.90;;;;;;5025809;28;20413;-80
2022/05/17 05:24:11;;;;;;;13.40;11.23;;;15.00;99.90;;;;;;5021472;28;20525;-80
2022/05/17 05:26:38;;;;;;;11.80;10.60;;;15.00;99.90;;;;;;5019308;28;20497;-80
2022/05/17 05:29:05;;;;;;;12.20;9.80;;;15.00;99.90;;;;;;5021503;28;20155;-79
2022/05/17 05:31:31;;;;;;;12.07;10.77;;;15.20;99.90;;;;;;5023540;28;20478;-80
2022/05/17 05:34:00;;;;;;;14.55;11.18;;;15.20;99.90;;;;;;5023189;28;20025;-79
2022/05/17 05:36:27;;;;;;;14.65;11.32;;;15.30;99.90;;;;;;5022559;28;20501;-80
2022/05/17 05:38:52;;;;;;;15.57;11.80;;;15.30;99.90;;;;;;5018794;28;20025;-79
2022/05/17 05:41:18;;;;;;;16.98;12.68;;;15.30;99.90;;;;;;5019695;28;20045;-80
2022/05/17 05:43:44;;;;;;;14.43;12.93;;;15.30;99.90;;;;;;5022755;28;20025;-80
2022/05/17 05:46:10;;;;;;;18.15;13.50;;;15.30;99.90;;;;;;5016123;28;20112;-80
2022/05/17 05:48:36;;;;;;;16.33;14.32;;;15.40;99.90;;;;;;5019459;28;20056;-80
2022/05/17 05:51:02;;;;;;;41.30;16.85;;;15.50;99.90;;;;;;5018669;28;20156;-80
2022/05/17 05:53:28;;;;;;;26.38;17.67;;;15.50;99.90;;;;;;5014888;28;20029;-80
2022/05/17 05:56:03;;;;;;;19.88;17.17;;;15.50;99.90;;;;;;5021011;28;20020;-80
2022/05/17 05:58:37;;;;;;;20.88;17.05;;;15.60;99.90;;;;;;5020599;28;20606;-80
2022/05/17 06:01:03;;;;;;;18.95;16.70;;;15.70;99.90;;;;;;5021160;28;20568;-80
2022/05/17 06:03:29;;;;;;;25.73;16.42;;;15.70;99.90;;;;;;5017395;28;20037;-81
2022/05/17 06:05:55;;;;;;;22.48;17.73;;;15.80;99.90;;;;;;5019078;28;20354;-80
2022/05/17 06:08:22;;;;;;;46.53;18.63;;;15.80;99.90;;;;;;5015389;28;20122;-80
2022/05/17 06:10:48;;;;;;;24.75;19.65;;;15.90;99.90;;;;;;5018897;28;20072;-80
2022/05/17 06:13:15;;;;;;;21.27;18.50;;;16.00;99.90;;;;;;5021129;28;20596;-79
2022/05/17 06:15:41;;;;;;;23.48;19.77;;;16.00;99.90;;;;;;5020024;28;20029;-79
2022/05/17 06:18:08;;;;;;;25.20;20.13;;;16.20;99.90;;;;;;5018171;28;20493;-80
2022/05/17 06:20:35;;;;;;;24.88;19.48;;;16.30;99.90;;;;;;5017731;28;20083;-80
2022/05/17 06:23:01;;;;;;;25.38;20.83;;;16.30;99.90;;;;;;5018183;28;20029;-80
2022/05/17 06:25:27;;;;;;;23.85;20.05;;;16.40;99.90;;;;;;5017278;28;20045;-80
2022/05/17 06:27:53;;;;;;;25.80;19.27;;;16.50;99.90;;;;;;5022865;28;20032;-79
2022/05/17 06:30:18;;;;;;;22.58;18.85;;;16.70;99.90;;;;;;5018003;28;20040;-79
2022/05/17 06:32:44;;;;;;;21.38;18.60;;;17.00;99.90;;;;;;5021881;28;20030;-80
2022/05/17 06:35:11;;;;;;;23.67;18.10;;;17.10;99.90;;;;;;5007254;28;20076;-79
2022/05/17 06:37:37;;;;;;;22.00;18.27;;;17.10;99.90;;;;;;5011870;28;20052;-79
2022/05/17 06:40:05;;;;;;;23.35;18.83;;;17.10;99.90;;;;;;5017922;28;20079;-79
2022/05/17 06:42:32;;;;;;;22.02;17.42;;;17.20;99.90;;;;;;5020915;28;20034;-79
2022/05/17 06:44:58;;;;;;;18.63;16.27;;;17.30;99.90;;;;;;5018068;28;20033;-79
2022/05/17 06:47:24;;;;;;;24.20;17.88;;;17.30;99.90;;;;;;5020885;28;20518;-79
2022/05/17 06:49:49;;;;;;;22.13;17.25;;;17.50;99.90;;;;;;5016457;28;20386;-79
2022/05/17 06:52:16;;;;;;;21.30;17.25;;;18.00;99.90;;;;;;5017838;28;20044;-78
2022/05/17 06:54:43;;;;;;;19.17;16.42;;;17.90;99.90;;;;;;5022357;28;20121;-79
2022/05/17 06:57:10;;;;;;;18.95;16.40;;;18.20;99.90;;;;;;5017423;28;20022;-79
2022/05/17 06:59:39;;;;;;;19.65;15.95;;;18.40;99.90;;;;;;5018047;28;20095;-77
2022/05/17 07:02:06;;;;;;;17.88;15.40;;;18.50;99.90;;;;;;5010548;28;20038;-77
2022/05/17 07:04:33;;;;;;;18.25;13.93;;;18.60;99.90;;;;;;5012067;28;20513;-80
2022/05/17 07:06:59;;;;;;;17.23;13.57;;;18.70;99.90;;;;;;5015005;28;20033;-78
2022/05/17 07:09:26;;;;;;;20.30;14.48;;;18.70;99.90;;;;;;5016685;28;20642;-78
2022/05/17 07:14:39;;;;;;;16.92;13.02;;;18.80;99.90;;;;;;5026231;28;20028;-77
2022/05/17 07:17:06;;;;;;;20.45;14.25;;;18.90;99.90;;;;;;5025915;28;20022;-78
2022/05/17 07:19:33;;;;;;;18.17;13.75;;;19.00;99.90;;;;;;5016599;28;20034;-77
2022/05/17 07:22:04;;;;;;;18.45;12.32;;;19.30;99.90;;;;;;5018636;28;20120;-77
2022/05/17 07:24:31;;;;;;;14.32;10.68;;;19.40;99.90;;;;;;5025860;28;20045;-77
2022/05/17 07:26:58;;;;;;;14.43;10.70;;;19.60;99.90;;;;;;5018264;28;20034;-78
2022/05/17 07:29:23;;;;;;;19.45;11.60;;;19.70;99.90;;;;;;5010696;28;20028;-77
2022/05/17 07:31:49;;;;;;;14.85;10.25;;;19.80;99.90;;;;;;5025958;28;20104;-77
2022/05/17 07:34:16;;;;;;;13.32;9.25;;;20.00;99.90;;;;;;5026497;28;20029;-78
2022/05/17 07:36:42;;;;;;;12.23;9.00;;;20.30;99.90;;;;;;5024464;28;20162;-78
2022/05/17 07:39:08;;;;;;;15.50;10.40;;;20.50;99.90;;;;;;5027753;28;20033;-78
2022/05/17 07:41:34;;;;;;;13.23;10.63;;;20.50;99.90;;;;;;5030350;28;20041;-78
2022/05/17 07:44:02;;;;;;;14.82;10.07;;;20.60;99.90;;;;;;5028947;28;20033;-78
2022/05/17 07:46:28;;;;;;;16.38;10.65;;;20.70;99.90;;;;;;5028739;28;20041;-78
2022/05/17 07:48:54;;;;;;;12.45;9.05;;;20.70;99.90;;;;;;5027946;28;20285;-78
2022/05/17 07:51:20;;;;;;;12.10;8.85;;;20.90;99.90;;;;;;5011848;28;20022;-78
2022/05/17 07:53:46;;;;;;;12.40;9.63;;;20.90;99.90;;;;;;5010731;28;20029;-78
2022/05/17 07:56:12;;;;;;;17.50;9.15;;;21.00;99.90;;;;;;5025747;28;20771;-78
2022/05/17 07:58:38;;;;;;;14.98;9.32;;;21.10;99.90;;;;;;5026267;28;20034;-78
2022/05/17 08:01:04;;;;;;;14.95;9.13;;;21.40;99.90;;;;;;5022655;28;20389;-78
2022/05/17 08:03:31;;;;;;;14.00;9.00;;;21.40;99.90;;;;;;5017071;28;20600;-78
2022/05/17 08:05:57;;;;;;;13.98;9.43;;;21.40;99.90;;;;;;5027534;28;20025;-78
2022/05/17 08:08:23;;;;;;;14.52;9.40;;;21.30;99.90;;;;;;5025058;28;20037;-78
2022/05/17 08:10:48;;;;;;;14.18;7.55;;;21.30;99.90;;;;;;5029989;28;20071;-78
2022/05/17 08:13:15;;;;;;;12.07;7.30;;;21.60;99.90;;;;;;5026639;28;20078;-77
2022/05/17 08:15:41;;;;;;;16.73;8.90;;;21.60;99.90;;;;;;5028373;28;20017;-77
2022/05/17 08:18:06;;;;;;;12.40;7.10;;;21.70;99.90;;;;;;5028421;28;20029;-77
2022/05/17 08:20:33;;;;;;;11.65;7.22;;;21.80;99.90;;;;;;5024102;28;20315;-77
2022/05/17 08:23:00;;;;;;;14.10;6.78;;;22.00;99.90;;;;;;5027812;28;20108;-77
2022/05/17 08:28:10;;;;;;;13.27;6.68;;;22.00;99.90;;;;;;5027747;28;20125;-77
2022/05/17 08:30:37;;;;;;;12.10;6.30;;;22.00;99.90;;;;;;5029752;28;20108;-77
2022/05/17 08:33:16;;;;;;;14.52;5.93;;;22.10;99.90;;;;;;5019202;28;20029;-77
2022/05/17 08:36:03;;;;;;;12.30;5.40;;;22.20;99.90;;;;;;5022539;28;20025;-77
2022/05/17 08:38:33;;;;;;;12.35;5.47;;;22.20;99.90;;;;;;5007729;28;20076;-77
2022/05/17 08:41:29;;;;;;;10.82;5.22;;;22.10;99.90;;;;;;5009306;28;20545;-77
2022/05/17 08:44:00;;;;;;;14.38;5.70;;;22.30;99.90;;;;;;5009817;28;20486;-77
2022/05/17 08:46:44;;;;;;;11.25;5.05;;;22.40;99.90;;;;;;5025888;28;20057;-77
2022/05/17 08:49:25;;;;;;;12.23;5.60;;;22.30;99.90;;;;;;5020599;28;20033;-77
2022/05/17 08:51:58;;;;;;;13.27;4.80;;;22.40;99.90;;;;;;5022534;28;20045;-77
2022/05/17 08:54:36;;;;;;;9.85;4.75;;;22.60;99.90;;;;;;5009538;28;20402;-77
2022/05/17 08:57:23;;;;;;;8.63;4.05;;;22.60;99.90;;;;;;5020868;28;20033;-77
2022/05/17 08:59:49;;;;;;;9.52;4.70;;;22.70;99.90;;;;;;5018672;28;20052;-77
2022/05/17 09:02:25;;;;;;;12.05;5.40;;;22.80;99.90;;;;;;5028459;28;20466;-77
2022/05/17 09:05:18;;;;;;;10.30;4.93;;;22.90;99.90;;;;;;5028481;28;20025;-77
2022/05/17 09:08:09;;;;;;;12.30;4.45;;;22.80;99.90;;;;;;5024157;28;20366;-77
2022/05/17 09:11:03;;;;;;;7.50;4.30;;;22.90;99.90;;;;;;5009507;28;20037;-77
2022/05/17 09:13:54;;;;;;;9.38;5.55;;;23.00;99.90;;;;;;5027384;28;20021;-77
2022/05/17 09:16:23;;;;;;;10.65;5.38;;;23.10;99.90;;;;;;5024138;28;20029;-77
2022/05/17 09:18:50;;;;;;;11.27;5.15;;;23.30;99.90;;;;;;5023611;28;20492;-77
2022/05/17 09:21:42;;;;;;;10.35;3.92;;;23.20;99.90;;;;;;5026080;28;20104;-77
2022/05/17 09:24:12;;;;;;;7.30;3.70;;;23.20;99.90;;;;;;5027929;28;20116;-77
2022/05/17 09:26:47;;;;;;;12.75;3.67;;;23.20;99.90;;;;;;5026461;28;20025;-77
2022/05/17 09:29:25;;;;;;;8.90;4.15;;;23.20;99.90;;;;;;5024236;28;20057;-77
2022/05/17 09:32:00;;;;;;;10.13;3.75;;;23.30;99.90;;;;;;5026721;28;20068;-77
2022/05/17 09:34:36;;;;;;;10.63;4.63;;;23.40;99.90;;;;;;5028143;28;20025;-77
2022/05/17 09:37:08;;;;;;;7.05;4.50;;;23.60;99.90;;;;;;5027810;28;20413;-77
2022/05/17 09:39:34;;;;;;;7.90;4.05;;;23.70;99.90;;;;;;5024005;28;21032;-77
2022/05/17 09:42:08;;;;;;;10.60;4.30;;;23.90;99.90;;;;;;5027082;28;20445;-77
2022/05/17 09:44:41;;;;;;;9.98;4.53;;;24.10;99.90;;;;;;5027570;28;20029;-78
2022/05/17 09:47:14;;;;;;;8.52;4.10;;;23.80;99.90;;;;;;5027882;28;20040;-77
2022/05/17 09:52:46;;;;;;;9.52;4.50;;;23.30;99.90;;;;;;5024572;28;20032;-78
2022/05/17 09:55:14;;;;;;;9.23;4.10;;;23.20;99.90;;;;;;5025247;28;20167;-77
2022/05/17 09:58:01;;;;;;;9.70;4.22;;;23.30;99.90;;;;;;5027663;28;20064;-77
2022/05/17 10:00:48;;;;;;;10.80;4.30;;;23.50;99.90;;;;;;5015086;28;20148;-77
2022/05/17 10:03:34;;;;;;;6.97;3.15;;;23.60;99.90;;;;;;5009461;28;20104;-77
2022/05/17 10:06:29;;;;;;;9.77;3.90;;;23.80;99.90;;;;;;5024775;28;20026;-77
2022/05/17 10:09:09;;;;;;;9.05;3.50;;;23.90;99.90;;;;;;5024180;28;20726;-77
2022/05/17 10:11:45;;;;;;;11.05;3.05;;;24.00;99.90;;;;;;5027285;28;20037;-77
2022/05/17 10:14:31;;;;;;;6.00;2.80;;;24.10;99.90;;;;;;5026893;28;20037;-77
2022/05/17 10:17:06;;;;;;;9.23;3.05;;;24.30;99.90;;;;;;5022899;28;20030;-77
2022/05/17 10:19:50;;;;;;;5.57;2.90;;;24.50;99.90;;;;;;5025192;28;20254;-77
2022/05/17 10:22:34;;;;;;;7.88;3.25;;;24.60;97.10;;;;;;5027713;28;20426;-77
2022/05/17 10:25:25;;;;;;;9.07;2.97;;;24.70;96.40;;;;;;5025553;28;20045;-78
2022/05/17 10:28:27;;;;;;;9.40;3.28;;;24.60;94.60;;;;;;5025986;28;20068;-77
2022/05/17 10:31:01;;;;;;;7.70;2.83;;;24.60;96.40;;;;;;5026765;28;20495;-78
2022/05/17 10:33:35;;;;;;;6.93;2.88;;;24.50;97.20;;;;;;5025012;28;20087;-78
2022/05/17 10:36:10;;;;;;;6.72;2.70;;;24.40;97.20;;;;;;5021656;28;20036;-77
2022/05/17 10:38:51;;;;;;;6.55;2.65;;;24.30;99.80;;;;;;5022222;28;20026;-78
2022/05/17 10:41:16;;;;;;;9.48;3.00;;;24.20;99.70;;;;;;5027219;28;20087;-78
2022/05/17 10:43:44;;;;;;;5.88;2.78;;;24.10;99.50;;;;;;5026688;28;20029;-78
2022/05/17 10:46:16;;;;;;;5.80;2.60;;;24.00;99.00;;;;;;5026270;28;20060;-78
2022/05/17 10:49:19;;;;;;;6.90;2.70;;;23.90;99.90;;;;;;5022984;28;20120;-77
2022/05/17 10:51:44;;;;;;;5.57;2.28;;;23.70;99.90;;;;;;5013459;28;20033;-78
2022/05/17 10:54:30;;;;;;;4.18;2.60;;;23.60;99.90;;;;;;5012884;28;20082;-78
2022/05/17 10:57:25;;;;;;;7.28;2.85;;;23.50;99.90;;;;;;5026556;28;20078;-78
2022/05/17 11:00:31;;;;;;;10.85;3.10;;;23.30;99.90;;;;;;5023565;28;20072;-78
2022/05/17 11:03:30;;;;;;;8.00;3.00;;;23.30;99.90;;;;;;4992834;28;20483;-77
2022/05/17 11:06:23;;;;;;;9.93;3.15;;;23.20;99.90;;;;;;5023365;28;20025;-78
2022/05/17 11:08:52;;;;;;;8.45;3.63;;;23.30;99.90;;;;;;5023496;28;20170;-78
2022/05/17 11:11:37;;;;;;;7.63;3.25;;;23.40;99.90;;;;;;5026582;28;20076;-78
2022/05/17 11:14:10;;;;;;;6.40;3.38;;;23.70;99.90;;;;;;5024525;28;20116;-77
2022/05/17 11:16:48;;;;;;;9.07;3.53;;;24.00;99.90;;;;;;5026336;28;20053;-77
2022/05/17 11:19:22;;;;;;;9.55;3.70;;;24.40;99.90;;;;;;5024432;28;20095;-77
2022/05/17 11:22:19;;;;;;;8.35;3.22;;;24.70;99.90;;;;;;5023223;28;20041;-77
2022/05/17 11:25:03;;;;;;;7.05;3.35;;;24.80;99.90;;;;;;5021253;28;20406;-77
2022/05/17 11:27:54;;;;;;;10.10;3.67;;;25.00;99.30;;;;;;5008948;28;20053;-78
2022/05/17 11:30:23;;;;;;;5.75;3.35;;;25.00;99.40;;;;;;5024021;28;20037;-77
2022/05/17 11:33:10;;;;;;;8.57;3.20;;;25.20;99.90;;;;;;5024878;28;20045;-77
2022/05/17 11:35:38;;;;;;;6.72;2.97;;;25.40;99.70;;;;;;5026200;28;20045;-77
2022/05/17 11:38:16;;;;;;;7.50;3.22;;;25.30;97.90;;;;;;5025874;28;20091;-78
2022/05/17 11:40:47;;;;;;;7.03;2.90;;;25.10;97.20;;;;;;5024425;28;20025;-77
2022/05/17 11:46:04;;;;;;;5.38;2.65;;;24.90;99.40;;;;;;5024019;28;20113;-78
2022/05/17 11:48:55;;;;;;;5.00;2.65;;;24.90;96.50;;;;;;5023696;28;20237;-78
2022/05/17 11:51:28;;;;;;;6.10;2.80;;;25.00;96.20;;;;;;5026049;28;20026;-78
2022/05/17 11:53:54;;;;;;;7.15;2.75;;;25.00;97.80;;;;;;5025650;28;20026;-77
2022/05/17 11:56:34;;;;;;;5.32;2.72;;;25.00;97.10;;;;;;5024676;28;20105;-77
2022/05/17 11:59:29;;;;;;;5.68;2.20;;;24.80;96.90;;;;;;5016988;28;20032;-78
2022/05/17 12:02:10;;;;;;;6.03;1.80;;;24.80;97.70;;;;;;5007661;28;20543;-78
2022/05/17 12:04:42;;;;;;;4.50;1.13;;;25.00;97.60;;;;;;5024804;28;20405;-78
2022/05/17 12:07:20;;;;;;;4.13;1.60;;;25.20;92.30;;;;;;5026207;28;20029;-78
2022/05/17 12:09:55;;;;;;;5.40;2.40;;;25.60;93.90;;;;;;5023431;28;20079;-77
2022/05/17 12:12:39;;;;;;;8.35;3.45;;;26.00;96.70;;;;;;5023366;28;20026;-78
2022/05/17 12:15:17;;;;;;;5.80;3.05;;;25.90;96.40;;;;;;5025483;28;20033;-77
2022/05/17 12:18:10;;;;;;;5.35;2.50;;;25.90;95.30;;;;;;5021112;28;20036;-78
2022/05/17 12:21:09;;;;;;;5.57;2.33;;;25.50;93.80;;;;;;5025727;28;20036;-77
2022/05/17 12:23:58;;;;;;;7.30;1.73;;;25.30;97.90;;;;;;5027426;28;20041;-77
2022/05/17 12:26:44;;;;;;;5.28;1.58;;;24.90;94.80;;;;;;5025229;28;20128;-77
2022/05/17 12:32:07;;;;;;;4.28;1.40;;;24.60;96.10;;;;;;5028314;28;20097;-78
2022/05/17 12:34:33;;;;;;;3.17;1.40;;;24.70;93.80;;;;;;5014149;28;20025;-78
2022/05/17 12:37:16;;;;;;;2.25;1.20;;;24.90;92.30;;;;;;5028124;28;20167;-78
2022/05/17 12:45:20;;;;;;;9.75;1.70;;;24.90;90.20;;;;;;5029058;28;20156;-77
2022/05/17 12:47:58;;;;;;;6.50;1.55;;;24.90;94.80;;;;;;5026348;28;20025;-78
2022/05/17 12:50:30;;;;;;;2.28;1.10;;;24.60;93.10;;;;;;5023105;28;20110;-78
2022/05/17 12:52:58;;;;;;;2.88;1.23;;;24.50;92.00;;;;;;5029217;28;20041;-78
2022/05/17 12:55:30;;;;;;;4.03;1.30;;;24.80;92.70;;;;;;5028973;28;20025;-78
2022/05/17 12:58:06;;;;;;;3.03;1.25;;;25.00;88.10;;;;;;5025911;28;20033;-78
2022/05/17 13:00:32;;;;;;;4.05;1.48;;;25.20;86.80;;;;;;5023306;28;20036;-78
2022/05/17 13:03:03;;;;;;;4.25;1.30;;;25.40;85.90;;;;;;5028643;28;20029;-78
2022/05/17 13:05:32;;;;;;;3.22;1.10;;;25.60;81.10;;;;;;5019112;28;20013;-78
2022/05/17 13:08:14;;;;;;;3.92;1.23;;;25.90;80.30;;;;;;5023555;28;20042;-78
2022/05/17 13:10:43;;;;;;;7.82;1.52;;;26.10;82.50;;;;;;5028360;28;20128;-78
2022/05/17 13:13:17;;;;;;;3.58;1.55;;;26.30;85.00;;;;;;5028678;28;20454;-78
2022/05/17 13:15:47;;;;;;;4.68;1.70;;;26.50;80.40;;;;;;5028502;28;20026;-78
2022/05/17 13:18:14;;;;;;;4.05;1.42;;;26.50;76.80;;;;;;5025128;28;20055;-78